sensor_id;sensor_type;location;lat;lon;timestamp;pressure;altitude;pressure_sealevel;temperature;humidity
6453;BME280;3259;51.080;13.712;2023-05-10T00:02:01;99849.63;;;26.46;35.81
6453;BME280;3259;51.080;13.712;2023-05-10T00:04:49;99853.72;;;26.48;35.63
6453;BME280;3259;51.080;13.712;2023-05-10T00:07:39;99849.25;;;26.42;35.77
6453;BME280;3259;51.080;13.712;2023-05-10T00:10:27;99850.88;;;26.43;35.83
6453;BME280;3259;51.080;13.712;2023-05-10T00:13:18;99845.97;;;26.40;35.92
6453;BME280;3259;51.080;13.712;2023-05-10T00:16:07;99847.75;;;26.46;35.71
6453;BME280;3259;51.080;13.712;2023-05-10T00:18:56;99841.38;;;26.47;35.65
6453;BME280;3259;51.080;13.712;2023-05-10T00:21:47;99841.38;;;26.47;35.82
6453;BME280;3259;51.080;13.712;2023-05-10T00:24:36;99839.75;;;26.46;35.75
6453;BME280;3259;51.080;13.712;2023-05-10T00:27:26;99842.25;;;26.41;35.59
6453;BME280;3259;51.080;13.712;2023-05-10T00:30:16;99833.47;;;26.34;36.00
6453;BME280;3259;51.080;13.712;2023-05-10T00:33:05;99837.78;;;26.35;35.86
6453;BME280;3259;51.080;13.712;2023-05-10T00:35:54;99821.31;;;26.38;35.70
6453;BME280;3259;51.080;13.712;2023-05-10T00:38:43;99823.38;;;26.36;35.92
6453;BME280;3259;51.080;13.712;2023-05-10T00:41:32;99832.44;;;26.35;35.66
6453;BME280;3259;51.080;13.712;2023-05-10T00:44:21;99806.47;;;26.42;35.63
6453;BME280;3259;51.080;13.712;2023-05-10T00:47:11;99811.81;;;26.42;35.64
6453;BME280;3259;51.080;13.712;2023-05-10T00:50:02;99815.53;;;26.41;35.61
6453;BME280;3259;51.080;13.712;2023-05-10T00:52:51;99813.66;;;26.42;35.76
6453;BME280;3259;51.080;13.712;2023-05-10T00:55:41;99814.47;;;26.42;35.92
6453;BME280;3259;51.080;13.712;2023-05-10T00:58:30;99810.16;;;26.41;35.79
6453;BME280;3259;51.080;13.712;2023-05-10T01:01:19;99811.81;;;26.42;35.50
6453;BME280;3259;51.080;13.712;2023-05-10T01:04:09;99816.13;;;26.43;35.57
6453;BME280;3259;51.080;13.712;2023-05-10T01:06:59;99811.63;;;26.37;35.66
6453;BME280;3259;51.080;13.712;2023-05-10T01:09:48;99808.75;;;26.39;35.69
6453;BME280;3259;51.080;13.712;2023-05-10T01:12:40;99813.88;;;26.40;35.66
6453;BME280;3259;51.080;13.712;2023-05-10T01:15:31;99807.06;;;26.44;35.62
6453;BME280;3259;51.080;13.712;2023-05-10T01:18:20;99809.94;;;26.43;35.63
6453;BME280;3259;51.080;13.712;2023-05-10T01:21:19;99805.22;;;26.45;35.56
6453;BME280;3259;51.080;13.712;2023-05-10T01:24:27;99802.59;;;26.38;35.60
6453;BME280;3259;51.080;13.712;2023-05-10T01:31:14;99814.31;;;26.37;35.72
6453;BME280;3259;51.080;13.712;2023-05-10T01:34:09;99811.41;;;26.39;35.57
6453;BME280;3259;51.080;13.712;2023-05-10T01:37:04;99803.00;;;26.35;35.86
6453;BME280;3259;51.080;13.712;2023-05-10T01:39:59;99796.63;;;26.36;35.53
6453;BME280;3259;51.080;13.712;2023-05-10T01:42:54;99794.56;;;26.38;35.77
6453;BME280;3259;51.080;13.712;2023-05-10T01:45:58;99792.91;;;26.37;35.68
6453;BME280;3259;51.080;13.712;2023-05-10T01:48:54;99798.25;;;26.37;35.79
6453;BME280;3259;51.080;13.712;2023-05-10T01:51:50;99799.16;;;26.31;35.83
6453;BME280;3259;51.080;13.712;2023-05-10T01:54:43;99807.75;;;26.33;35.83
6453;BME280;3259;51.080;13.712;2023-05-10T01:57:35;99802.66;;;26.32;35.65
6453;BME280;3259;51.080;13.712;2023-05-10T02:00:27;99805.75;;;26.29;36.08
6453;BME280;3259;51.080;13.712;2023-05-10T02:03:18;99799.16;;;26.31;35.74
6453;BME280;3259;51.080;13.712;2023-05-10T02:06:10;99793.41;;;26.28;36.07
6453;BME280;3259;51.080;13.712;2023-05-10T02:09:03;99799.16;;;26.31;35.91
6453;BME280;3259;51.080;13.712;2023-05-10T02:11:52;99790.53;;;26.29;35.98
6453;BME280;3259;51.080;13.712;2023-05-10T02:14:42;99795.94;;;26.23;35.97
6453;BME280;3259;51.080;13.712;2023-05-10T02:17:32;99790.97;;;26.26;35.76
6453;BME280;3259;51.080;13.712;2023-05-10T02:20:22;99784.22;;;26.24;35.82
6453;BME280;3259;51.080;13.712;2023-05-10T02:23:12;99792.00;;;26.25;35.87
6453;BME280;3259;51.080;13.712;2023-05-10T02:26:03;99782.50;;;26.29;35.80
6453;BME280;3259;51.080;13.712;2023-05-10T02:28:55;99780.88;;;26.28;35.88
6453;BME280;3259;51.080;13.712;2023-05-10T02:31:45;99783.97;;;26.25;36.02
6453;BME280;3259;51.080;13.712;2023-05-10T02:34:35;99788.44;;;26.31;35.77
6453;BME280;3259;51.080;13.712;2023-05-10T02:37:25;99787.25;;;26.27;35.75
6453;BME280;3259;51.080;13.712;2023-05-10T02:40:15;99788.44;;;26.31;35.70
6453;BME280;3259;51.080;13.712;2023-05-10T02:43:09;99774.81;;;26.39;35.45
6453;BME280;3259;51.080;13.712;2023-05-10T02:46:00;99785.94;;;26.36;35.55
6453;BME280;3259;51.080;13.712;2023-05-10T02:48:49;99783.25;;;26.36;35.71
6453;BME280;3259;51.080;13.712;2023-05-10T02:51:56;99785.13;;;26.36;35.46
6453;BME280;3259;51.080;13.712;2023-05-10T02:54:50;99781.47;;;26.30;35.63
6453;BME280;3259;51.080;13.712;2023-05-10T02:57:43;99785.19;;;26.29;35.89
6453;BME280;3259;51.080;13.712;2023-05-10T03:00:36;99779.53;;;26.37;35.80
6453;BME280;3259;51.080;13.712;2023-05-10T03:03:25;99786.75;;;26.37;35.54
6453;BME280;3259;51.080;13.712;2023-05-10T03:06:13;99789.44;;;26.37;35.61
6453;BME280;3259;51.080;13.712;2023-05-10T03:09:03;99788.25;;;26.33;35.69
6453;BME280;3259;51.080;13.712;2023-05-10T03:11:56;99787.84;;;26.29;36.01
6453;BME280;3259;51.080;13.712;2023-05-10T03:15:00;99788.91;;;26.28;35.72
6453;BME280;3259;51.080;13.712;2023-05-10T03:17:55;99787.69;;;26.24;36.02
6453;BME280;3259;51.080;13.712;2023-05-10T03:20:48;99778.41;;;26.27;35.71
6453;BME280;3259;51.080;13.712;2023-05-10T03:23:41;99783.56;;;26.28;35.57
6453;BME280;3259;51.080;13.712;2023-05-10T03:26:30;99774.56;;;26.23;35.98
6453;BME280;3259;51.080;13.712;2023-05-10T03:29:20;99776.19;;;26.24;35.68
6453;BME280;3259;51.080;13.712;2023-05-10T03:32:10;99766.75;;;26.21;35.84
6453;BME280;3259;51.080;13.712;2023-05-10T03:35:01;99758.50;;;26.23;36.02
6453;BME280;3259;51.080;13.712;2023-05-10T03:37:54;99767.13;;;26.25;35.71
6453;BME280;3259;51.080;13.712;2023-05-10T03:40:43;99773.91;;;26.27;35.77
6453;BME280;3259;51.080;13.712;2023-05-10T03:43:31;99778.41;;;26.27;35.64
6453;BME280;3259;51.080;13.712;2023-05-10T03:46:20;99778.63;;;26.25;35.79
6453;BME280;3259;51.080;13.712;2023-05-10T03:49:09;99772.84;;;26.28;35.65
6453;BME280;3259;51.080;13.712;2023-05-10T03:51:59;99781.59;;;26.17;36.12
6453;BME280;3259;51.080;13.712;2023-05-10T03:54:48;99788.13;;;26.21;36.16
6453;BME280;3259;51.080;13.712;2023-05-10T03:57:36;99788.19;;;26.15;36.07
6453;BME280;3259;51.080;13.712;2023-05-10T04:00:25;99802.09;;;26.23;35.94
6453;BME280;3259;51.080;13.712;2023-05-10T04:03:14;99793.41;;;26.28;35.71
6453;BME280;3259;51.080;13.712;2023-05-10T04:06:05;99792.63;;;26.27;35.94
6453;BME280;3259;51.080;13.712;2023-05-10T04:08:57;99800.91;;;26.19;35.91
6453;BME280;3259;51.080;13.712;2023-05-10T04:11:50;99790.97;;;26.26;35.98
6453;BME280;3259;51.080;13.712;2023-05-10T04:14:39;99797.78;;;26.22;35.98
6453;BME280;3259;51.080;13.712;2023-05-10T04:17:27;99791.41;;;26.23;35.80
6453;BME280;3259;51.080;13.712;2023-05-10T04:20:16;99794.31;;;26.22;35.96
6453;BME280;3259;51.080;13.712;2023-05-10T04:23:05;99782.78;;;26.21;35.87
6453;BME280;3259;51.080;13.712;2023-05-10T04:26:00;99793.47;;;26.21;36.51
6453;BME280;3259;51.080;13.712;2023-05-10T04:28:49;99788.50;;;26.25;35.85
6453;BME280;3259;51.080;13.712;2023-05-10T04:31:38;99784.41;;;26.22;34.19
6453;BME280;3259;51.080;13.712;2023-05-10T04:34:27;99780.81;;;26.10;34.00
6453;BME280;3259;51.080;13.712;2023-05-10T04:37:16;99790.72;;;26.10;33.75
6453;BME280;3259;51.080;13.712;2023-05-10T04:40:06;99786.06;;;25.99;33.06
6453;BME280;3259;51.080;13.712;2023-05-10T04:42:56;99790.00;;;25.96;33.04
6453;BME280;3259;51.080;13.712;2023-05-10T04:45:45;99785.69;;;25.95;32.97
6453;BME280;3259;51.080;13.712;2023-05-10T04:48:33;99780.78;;;25.92;33.11
6453;BME280;3259;51.080;13.712;2023-05-10T04:51:22;99773.16;;;25.89;32.61
6453;BME280;3259;51.080;13.712;2023-05-10T04:54:10;99780.00;;;25.86;32.65
6453;BME280;3259;51.080;13.712;2023-05-10T04:56:59;99779.81;;;25.81;31.51
6453;BME280;3259;51.080;13.712;2023-05-10T04:59:50;99779.03;;;25.74;31.58
6453;BME280;3259;51.080;13.712;2023-05-10T05:02:42;99785.66;;;25.65;31.78
6453;BME280;3259;51.080;13.712;2023-05-10T05:05:32;99777.84;;;25.70;31.49
6453;BME280;3259;51.080;13.712;2023-05-10T05:08:21;99775.31;;;25.75;31.56
6453;BME280;3259;51.080;13.712;2023-05-10T05:11:10;99772.53;;;25.63;31.18
6453;BME280;3259;51.080;13.712;2023-05-10T05:13:59;99775.84;;;25.59;31.01
6453;BME280;3259;51.080;13.712;2023-05-10T05:16:49;99780.41;;;25.52;31.21
6453;BME280;3259;51.080;13.712;2023-05-10T05:19:38;99789.00;;;25.54;31.13
6453;BME280;3259;51.080;13.712;2023-05-10T05:22:26;99781.19;;;25.59;31.16
6453;BME280;3259;51.080;13.712;2023-05-10T05:25:15;99782.47;;;25.50;30.90
6453;BME280;3259;51.080;13.712;2023-05-10T05:28:04;99775.50;;;25.49;31.01
6453;BME280;3259;51.080;13.712;2023-05-10T05:30:52;99774.31;;;25.45;31.06
6453;BME280;3259;51.080;13.712;2023-05-10T05:33:43;99778.81;;;25.44;30.83
6453;BME280;3259;51.080;13.712;2023-05-10T05:36:32;99770.59;;;25.46;30.93
6453;BME280;3259;51.080;13.712;2023-05-10T05:39:23;99768.31;;;25.43;30.86
6453;BME280;3259;51.080;13.712;2023-05-10T05:42:12;99772.47;;;25.39;31.20
6453;BME280;3259;51.080;13.712;2023-05-10T05:45:03;99777.56;;;25.47;31.30
6453;BME280;3259;51.080;13.712;2023-05-10T05:47:52;99780.84;;;25.49;31.46
6453;BME280;3259;51.080;13.712;2023-05-10T05:50:42;99773.44;;;25.51;31.22
6453;BME280;3259;51.080;13.712;2023-05-10T05:53:32;99773.03;;;25.47;31.01
6453;BME280;3259;51.080;13.712;2023-05-10T05:56:21;99776.69;;;25.53;31.62
6453;BME280;3259;51.080;13.712;2023-05-10T05:59:11;99780.50;;;25.70;31.38
6453;BME280;3259;51.080;13.712;2023-05-10T06:02:00;99784.41;;;25.67;31.07
6453;BME280;3259;51.080;13.712;2023-05-10T06:04:48;99786.09;;;25.62;31.56
6453;BME280;3259;51.080;13.712;2023-05-10T06:07:38;99795.16;;;25.61;31.75
6453;BME280;3259;51.080;13.712;2023-05-10T06:10:29;99791.28;;;25.57;31.36
6453;BME280;3259;51.080;13.712;2023-05-10T06:13:18;99784.72;;;25.53;33.03
6453;BME280;3259;51.080;13.712;2023-05-10T06:16:08;99802.19;;;25.49;32.98
6453;BME280;3259;51.080;13.712;2023-05-10T06:18:56;99786.78;;;25.51;31.81
6453;BME280;3259;51.080;13.712;2023-05-10T06:21:45;99797.09;;;25.41;31.94
6453;BME280;3259;51.080;13.712;2023-05-10T06:24:37;99793.19;;;25.43;32.19
6453;BME280;3259;51.080;13.712;2023-05-10T06:27:26;99792.34;;;25.49;32.24
6453;BME280;3259;51.080;13.712;2023-05-10T06:30:15;99810.03;;;25.44;31.89
6453;BME280;3259;51.080;13.712;2023-05-10T06:33:04;99791.34;;;25.44;31.75
6453;BME280;3259;51.080;13.712;2023-05-10T06:35:53;99796.50;;;25.39;31.55
6453;BME280;3259;51.080;13.712;2023-05-10T06:38:42;99794.06;;;25.37;31.63
6453;BME280;3259;51.080;13.712;2023-05-10T06:41:32;99803.50;;;25.33;31.77
6453;BME280;3259;51.080;13.712;2023-05-10T06:44:21;99789.91;;;25.41;32.00
6453;BME280;3259;51.080;13.712;2023-05-10T06:47:09;99792.34;;;25.43;31.67
6453;BME280;3259;51.080;13.712;2023-05-10T06:49:59;99790.72;;;25.42;31.75
6453;BME280;3259;51.080;13.712;2023-05-10T06:52:48;99795.25;;;25.41;31.44
6453;BME280;3259;51.080;13.712;2023-05-10T06:55:39;99797.69;;;25.43;31.48
6453;BME280;3259;51.080;13.712;2023-05-10T06:58:29;99794.88;;;25.38;31.65
6453;BME280;3259;51.080;13.712;2023-05-10T07:01:19;99788.72;;;25.37;31.66
6453;BME280;3259;51.080;13.712;2023-05-10T07:04:08;99793.41;;;25.42;31.50
6453;BME280;3259;51.080;13.712;2023-05-10T07:06:57;99792.16;;;25.44;31.60
6453;BME280;3259;51.080;13.712;2023-05-10T07:09:46;99791.97;;;25.46;31.79
6453;BME280;3259;51.080;13.712;2023-05-10T07:12:34;99786.41;;;25.41;31.81
6453;BME280;3259;51.080;13.712;2023-05-10T07:15:24;99790.72;;;25.42;31.58
6453;BME280;3259;51.080;13.712;2023-05-10T07:18:13;99796.50;;;25.39;31.49
6453;BME280;3259;51.080;13.712;2023-05-10T07:21:02;99799.78;;;25.41;31.48
6453;BME280;3259;51.080;13.712;2023-05-10T07:23:51;99786.84;;;25.38;31.71
6453;BME280;3259;51.080;13.712;2023-05-10T07:26:39;99789.69;;;25.43;31.83
6453;BME280;3259;51.080;13.712;2023-05-10T07:29:28;99784.97;;;25.45;31.36
6453;BME280;3259;51.080;13.712;2023-05-10T07:32:18;99788.50;;;25.39;31.65
6453;BME280;3259;51.080;13.712;2023-05-10T07:35:08;99791.16;;;25.39;31.74
6453;BME280;3259;51.080;13.712;2023-05-10T07:37:56;99788.50;;;25.39;31.67
6453;BME280;3259;51.080;13.712;2023-05-10T07:40:45;99791.16;;;25.39;31.76
6453;BME280;3259;51.080;13.712;2023-05-10T07:43:34;99793.22;;;25.37;31.42
6453;BME280;3259;51.080;13.712;2023-05-10T07:46:23;99804.50;;;25.39;31.82
6453;BME280;3259;51.080;13.712;2023-05-10T07:49:13;99789.53;;;25.38;31.31
6453;BME280;3259;51.080;13.712;2023-05-10T07:52:03;99792.34;;;25.43;31.72
6453;BME280;3259;51.080;13.712;2023-05-10T07:54:52;99797.69;;;25.43;31.73
6453;BME280;3259;51.080;13.712;2023-05-10T07:57:41;99796.25;;;25.47;31.86
6453;BME280;3259;51.080;13.712;2023-05-10T08:00:30;99786.66;;;25.39;31.31
6453;BME280;3259;51.080;13.712;2023-05-10T08:03:19;99792.78;;;25.40;31.93
6453;BME280;3259;51.080;13.712;2023-05-10T08:06:10;99791.28;;;25.57;31.91
6453;BME280;3259;51.080;13.712;2023-05-10T08:08:59;99790.25;;;25.58;31.57
6453;BME280;3259;51.080;13.712;2023-05-10T08:11:48;99787.38;;;25.53;31.47
6453;BME280;3259;51.080;13.712;2023-05-10T08:14:37;99783.66;;;25.54;31.98
6453;BME280;3259;51.080;13.712;2023-05-10T08:17:26;99790.25;;;25.58;31.56
6453;BME280;3259;51.080;13.712;2023-05-10T08:20:14;99790.25;;;25.58;31.65
6453;BME280;3259;51.080;13.712;2023-05-10T08:23:07;99787.81;;;25.50;31.41
6453;BME280;3259;51.080;13.712;2023-05-10T08:25:56;99780.00;;;25.48;31.77
6453;BME280;3259;51.080;13.712;2023-05-10T08:28:44;99792.72;;;25.53;31.71
6453;BME280;3259;51.080;13.712;2023-05-10T08:31:33;99790.69;;;25.55;31.82
6453;BME280;3259;51.080;13.712;2023-05-10T08:34:22;99791.09;;;25.52;31.75
6453;BME280;3259;51.080;13.712;2023-05-10T08:37:11;99797.25;;;25.52;31.75
6453;BME280;3259;51.080;13.712;2023-05-10T08:40:02;99807.50;;;25.55;32.19
6453;BME280;3259;51.080;13.712;2023-05-10T08:42:54;99805.00;;;25.60;31.65
6453;BME280;3259;51.080;13.712;2023-05-10T08:45:44;99810.34;;;25.60;31.92
6453;BME280;3259;51.080;13.712;2023-05-10T08:48:34;99804.63;;;25.57;31.86
6453;BME280;3259;51.080;13.712;2023-05-10T08:51:25;99811.16;;;25.61;31.78
6453;BME280;3259;51.080;13.712;2023-05-10T08:54:15;99824.09;;;25.64;31.75
6453;BME280;3259;51.080;13.712;2023-05-10T08:57:07;99819.63;;;25.58;31.64
6453;BME280;3259;51.080;13.712;2023-05-10T08:59:56;99821.84;;;25.61;31.66
6453;BME280;3259;51.080;13.712;2023-05-10T09:02:45;99827.63;;;25.58;32.09
6453;BME280;3259;51.080;13.712;2023-05-10T09:05:36;99825.75;;;25.58;31.62
6453;BME280;3259;51.080;13.712;2023-05-10T09:08:25;99828.06;;;25.55;31.83
6453;BME280;3259;51.080;13.712;2023-05-10T09:11:14;99832.97;;;25.58;31.84
6453;BME280;3259;51.080;13.712;2023-05-10T09:14:04;99827.34;;;25.66;31.80
6453;BME280;3259;51.080;13.712;2023-05-10T09:16:53;99828.78;;;25.68;31.93
6453;BME280;3259;51.080;13.712;2023-05-10T09:19:42;99838.25;;;25.71;32.18
6453;BME280;3259;51.080;13.712;2023-05-10T09:22:33;99832.91;;;25.71;31.94
6453;BME280;3259;51.080;13.712;2023-05-10T09:25:22;99824.44;;;25.74;32.16
6453;BME280;3259;51.080;13.712;2023-05-10T09:28:11;99830.63;;;25.74;32.15
6453;BME280;3259;51.080;13.712;2023-05-10T09:31:01;99822.22;;;25.71;31.86
6453;BME280;3259;51.080;13.712;2023-05-10T09:33:50;99829.63;;;25.69;32.33
6453;BME280;3259;51.080;13.712;2023-05-10T09:36:50;99828.16;;;25.73;32.43
6453;BME280;3259;51.080;13.712;2023-05-10T09:39:39;99826.69;;;25.77;31.88
6453;BME280;3259;51.080;13.712;2023-05-10T09:42:28;99839.00;;;25.77;32.21
6453;BME280;3259;51.080;13.712;2023-05-10T09:45:16;99837.75;;;25.80;32.40
6453;BME280;3259;51.080;13.712;2023-05-10T09:48:06;99834.88;;;25.82;31.93
6453;BME280;3259;51.080;13.712;2023-05-10T09:50:58;99832.81;;;25.83;32.04
6453;BME280;3259;51.080;13.712;2023-05-10T09:53:48;99834.44;;;25.84;32.21
6453;BME280;3259;51.080;13.712;2023-05-10T09:56:38;99836.94;;;25.86;32.00
6453;BME280;3259;51.080;13.712;2023-05-10T09:59:28;99839.38;;;25.88;31.64
6453;BME280;3259;51.080;13.712;2023-05-10T10:02:18;99837.69;;;25.93;31.79
6453;BME280;3259;51.080;13.712;2023-05-10T10:05:09;99833.19;;;25.93;31.58
6453;BME280;3259;51.080;13.712;2023-05-10T10:08:02;99836.31;;;25.91;31.73
6453;BME280;3259;51.080;13.712;2023-05-10T10:10:51;99839.97;;;25.89;31.61
6453;BME280;3259;51.080;13.712;2023-05-10T10:13:40;99834.81;;;25.94;31.63
6453;BME280;3259;51.080;13.712;2023-05-10T10:16:29;99831.56;;;25.92;31.81
6453;BME280;3259;51.080;13.712;2023-05-10T10:19:18;99831.50;;;25.99;31.88
6453;BME280;3259;51.080;13.712;2023-05-10T10:22:11;99822.50;;;25.93;31.68
6453;BME280;3259;51.080;13.712;2023-05-10T10:25:00;99829.28;;;25.89;32.08
6453;BME280;3259;51.080;13.712;2023-05-10T10:28:01;99825.38;;;25.92;32.00
6453;BME280;3259;51.080;13.712;2023-05-10T10:30:54;99829.47;;;25.94;31.76
6453;BME280;3259;51.080;13.712;2023-05-10T10:33:56;99825.31;;;25.98;31.92
6453;BME280;3259;51.080;13.712;2023-05-10T10:36:47;99821.47;;;25.94;32.24
6453;BME280;3259;51.080;13.712;2023-05-10T10:39:38;99822.84;;;26.03;32.17
6453;BME280;3259;51.080;13.712;2023-05-10T10:42:44;99824.88;;;26.01;32.03
6453;BME280;3259;51.080;13.712;2023-05-10T10:45:33;99828.59;;;26.00;32.10
6453;BME280;3259;51.080;13.712;2023-05-10T10:48:23;99831.47;;;26.05;32.00
6453;BME280;3259;51.080;13.712;2023-05-10T10:51:13;99833.53;;;26.03;32.04
6453;BME280;3259;51.080;13.712;2023-05-10T10:54:08;99836.38;;;26.08;31.47
6453;BME280;3259;51.080;13.712;2023-05-10T10:57:12;99834.72;;;26.07;32.00
6453;BME280;3259;51.080;13.712;2023-05-10T11:00:20;99831.91;;;26.02;31.85
6453;BME280;3259;51.080;13.712;2023-05-10T11:03:12;99828.19;;;26.03;31.89
6453;BME280;3259;51.080;13.712;2023-05-10T11:06:05;99834.72;;;26.07;32.29
6453;BME280;3259;51.080;13.712;2023-05-10T11:08:54;99830.81;;;26.10;31.88
6453;BME280;3259;51.080;13.712;2023-05-10T11:11:51;99826.84;;;26.12;32.23
6453;BME280;3259;51.080;13.712;2023-05-10T11:14:49;99836.38;;;26.08;31.77
6453;BME280;3259;51.080;13.712;2023-05-10T11:17:38;99843.78;;;26.06;32.15
6453;BME280;3259;51.080;13.712;2023-05-10T11:20:27;99827.91;;;26.11;31.93
6453;BME280;3259;51.080;13.712;2023-05-10T11:23:20;99832.00;;;26.14;32.04
6453;BME280;3259;51.080;13.712;2023-05-10T11:26:08;99833.03;;;26.13;32.07
6453;BME280;3259;51.080;13.712;2023-05-10T11:28:57;99835.53;;;26.08;32.15
6453;BME280;3259;51.080;13.712;2023-05-10T11:31:49;99842.91;;;26.12;31.87
6453;BME280;3259;51.080;13.712;2023-05-10T11:34:38;99847.84;;;26.15;31.77
6453;BME280;3259;51.080;13.712;2023-05-10T11:37:29;99841.25;;;26.11;31.80
6453;BME280;3259;51.080;13.712;2023-05-10T11:40:21;99837.94;;;26.16;31.52
6453;BME280;3259;51.080;13.712;2023-05-10T11:43:11;99843.69;;;26.19;31.54
6453;BME280;3259;51.080;13.712;2023-05-10T11:46:00;99846.50;;;26.24;31.58
6453;BME280;3259;51.080;13.712;2023-05-10T11:48:53;99843.53;;;26.14;31.78
6453;BME280;3259;51.080;13.712;2023-05-10T11:51:42;99848.44;;;26.17;31.78
6453;BME280;3259;51.080;13.712;2023-05-10T11:54:31;99843.84;;;26.24;31.90
6453;BME280;3259;51.080;13.712;2023-05-10T11:57:26;99839.97;;;26.20;32.10
6453;BME280;3259;51.080;13.712;2023-05-10T12:00:15;99836.25;;;26.21;32.08
6453;BME280;3259;51.080;13.712;2023-05-10T12:03:05;99841.00;;;26.19;32.16
6453;BME280;3259;51.080;13.712;2023-05-10T12:05:56;99852.31;;;26.21;31.96
6453;BME280;3259;51.080;13.712;2023-05-10T12:08:48;99847.34;;;26.25;31.63
6453;BME280;3259;51.080;13.712;2023-05-10T12:11:40;99847.53;;;26.23;32.06
6453;BME280;3259;51.080;13.712;2023-05-10T12:14:34;99858.69;;;26.20;32.09
6453;BME280;3259;51.080;13.712;2023-05-10T12:17:27;99860.13;;;26.23;31.76
6453;BME280;3259;51.080;13.712;2023-05-10T12:20:18;99851.25;;;26.22;31.78
6453;BME280;3259;51.080;13.712;2023-05-10T12:23:09;99851.06;;;26.24;31.91
6453;BME280;3259;51.080;13.712;2023-05-10T12:26:03;99860.25;;;26.28;31.69
6453;BME280;3259;51.080;13.712;2023-05-10T12:28:52;99854.72;;;26.29;31.59
6453;BME280;3259;51.080;13.712;2023-05-10T12:31:51;99863.78;;;26.28;31.65
6453;BME280;3259;51.080;13.712;2023-05-10T12:34:41;99854.72;;;26.29;31.59
6453;BME280;3259;51.080;13.712;2023-05-10T12:37:31;99853.50;;;26.25;31.88
6453;BME280;3259;51.080;13.712;2023-05-10T12:40:24;99862.56;;;26.24;31.74
6453;BME280;3259;51.080;13.712;2023-05-10T12:43:17;99868.09;;;26.29;31.83
6453;BME280;3259;51.080;13.712;2023-05-10T12:46:07;99853.50;;;26.25;31.63
6453;BME280;3259;51.080;13.712;2023-05-10T12:48:57;99868.22;;;26.34;31.38
6453;BME280;3259;51.080;13.712;2023-05-10T12:51:55;99867.63;;;26.32;31.78
6453;BME280;3259;51.080;13.712;2023-05-10T12:54:46;99865.41;;;26.29;31.54
6453;BME280;3259;51.080;13.712;2023-05-10T12:57:37;99856.50;;;26.35;31.55
6453;BME280;3259;51.080;13.712;2023-05-10T13:00:26;99862.88;;;26.34;31.52
6453;BME280;3259;51.080;13.712;2023-05-10T13:03:14;99868.81;;;26.36;31.69
6453;BME280;3259;51.080;13.712;2023-05-10T13:06:04;99879.16;;;26.33;31.49
6453;BME280;3259;51.080;13.712;2023-05-10T13:08:53;99872.34;;;26.37;31.24
6453;BME280;3259;51.080;13.712;2023-05-10T13:11:44;99874.81;;;26.38;31.22
6453;BME280;3259;51.080;13.712;2023-05-10T13:14:36;99869.88;;;26.35;31.44
6453;BME280;3259;51.080;13.712;2023-05-10T13:17:25;99864.53;;;26.35;31.63
6453;BME280;3259;51.080;13.712;2023-05-10T13:20:15;99871.44;;;26.43;31.63
6453;BME280;3259;51.080;13.712;2023-05-10T13:23:04;99872.28;;;26.43;31.62
6453;BME280;3259;51.080;13.712;2023-05-10T13:25:52;99878.06;;;26.40;31.77
6453;BME280;3259;51.080;13.712;2023-05-10T13:28:41;99873.97;;;26.38;31.83
6453;BME280;3259;51.080;13.712;2023-05-10T13:31:31;99871.41;;;26.49;31.58
6453;BME280;3259;51.080;13.712;2023-05-10T13:34:20;99866.50;;;26.46;31.66
6453;BME280;3259;51.080;13.712;2023-05-10T13:37:09;99868.56;;;26.44;31.22
6453;BME280;3259;51.080;13.712;2023-05-10T13:39:59;99870.09;;;26.34;31.57
6453;BME280;3259;51.080;13.712;2023-05-10T13:42:48;99877.09;;;26.35;31.83
6453;BME280;3259;51.080;13.712;2023-05-10T13:45:38;99867.47;;;26.27;33.61
6453;BME280;3259;51.080;13.712;2023-05-10T13:48:28;99864.63;;;26.22;34.55
6453;BME280;3259;51.080;13.712;2023-05-10T13:51:17;99868.28;;;26.28;34.87
6453;BME280;3259;51.080;13.712;2023-05-10T13:54:06;99872.00;;;26.27;35.04
6453;BME280;3259;51.080;13.712;2023-05-10T13:57:01;99876.56;;;26.26;35.32
6453;BME280;3259;51.080;13.712;2023-05-10T13:59:50;99869.53;;;26.25;35.24
6453;BME280;3259;51.080;13.712;2023-05-10T14:02:43;99867.47;;;26.27;35.61
6453;BME280;3259;51.080;13.712;2023-05-10T14:05:33;99874.88;;;26.25;35.81
6453;BME280;3259;51.080;13.712;2023-05-10T14:08:23;99868.09;;;26.29;36.11
6453;BME280;3259;51.080;13.712;2023-05-10T14:11:14;99864.97;;;26.32;36.42
6453;BME280;3259;51.080;13.712;2023-05-10T14:14:04;99861.69;;;26.30;36.60
6453;BME280;3259;51.080;13.712;2023-05-10T14:16:54;99862.13;;;26.27;36.79
6453;BME280;3259;51.080;13.712;2023-05-10T14:19:43;99857.97;;;26.31;36.63
6453;BME280;3259;51.080;13.712;2023-05-10T14:22:33;99857.94;;;26.38;36.72
6453;BME280;3259;51.080;13.712;2023-05-10T14:25:23;99856.28;;;26.37;36.83
6453;BME280;3259;51.080;13.712;2023-05-10T14:28:11;99855.41;;;26.43;36.06
6453;BME280;3259;51.080;13.712;2023-05-10T14:31:01;99859.34;;;26.40;36.64
6453;BME280;3259;51.080;13.712;2023-05-10T14:33:53;99851.16;;;26.35;37.10
6453;BME280;3259;51.080;13.712;2023-05-10T14:36:42;99857.53;;;26.34;36.68
6453;BME280;3259;51.080;13.712;2023-05-10T14:39:32;99856.69;;;26.40;36.65
6453;BME280;3259;51.080;13.712;2023-05-10T14:42:21;99859.13;;;26.42;36.94
6453;BME280;3259;51.080;13.712;2023-05-10T14:45:12;99852.78;;;26.36;36.79
6453;BME280;3259;51.080;13.712;2023-05-10T14:48:03;99861.19;;;26.40;37.07
6453;BME280;3259;51.080;13.712;2023-05-10T14:50:52;99857.09;;;26.37;36.61
6453;BME280;3259;51.080;13.712;2023-05-10T14:53:42;99867.84;;;26.31;36.82
6453;BME280;3259;51.080;13.712;2023-05-10T14:56:32;99859.03;;;26.30;37.03
6453;BME280;3259;51.080;13.712;2023-05-10T14:59:21;99863.13;;;26.33;36.56
6453;BME280;3259;51.080;13.712;2023-05-10T15:02:10;99867.44;;;26.34;36.83
6453;BME280;3259;51.080;13.712;2023-05-10T15:05:00;99871.09;;;26.39;37.26
6453;BME280;3259;51.080;13.712;2023-05-10T15:07:49;99863.81;;;26.46;36.96
6453;BME280;3259;51.080;13.712;2023-05-10T15:10:39;99864.41;;;26.48;36.77
6453;BME280;3259;51.080;13.712;2023-05-10T15:13:29;99868.56;;;26.44;37.04
6453;BME280;3259;51.080;13.712;2023-05-10T15:16:19;99868.22;;;26.34;37.19
6453;BME280;3259;51.080;13.712;2023-05-10T15:19:08;99877.69;;;26.37;37.45